createdAt,value
2019-04-30T00:00:38.179Z,26.70
2019-04-30T00:01:36.156Z,25.80
2019-04-30T00:02:39.731Z,23.50
2019-04-30T00:03:35.315Z,25.10
2019-04-30T00:04:40.147Z,19.70
2019-04-30T00:05:35.258Z,22.90
2019-04-30T00:06:39.205Z,23.40
2019-04-30T00:07:35.699Z,22.20
2019-04-30T00:08:35.441Z,20.70
2019-04-30T00:09:35.176Z,22.50
2019-04-30T00:10:37.027Z,22.20
2019-04-30T00:11:36.300Z,22.00
2019-04-30T00:12:38.039Z,23.10
2019-04-30T00:13:35.873Z,22.70
2019-04-30T00:14:39.941Z,16.80
2019-04-30T00:15:35.691Z,22.80
2019-04-30T00:16:36.324Z,22.80
2019-04-30T00:17:35.883Z,22.20
2019-04-30T00:18:37.938Z,23.20
2019-04-30T00:19:35.901Z,21.90
2019-04-30T00:20:38.464Z,21.20
2019-04-30T00:21:36.099Z,20.40
2019-04-30T00:22:39.328Z,20.60
2019-04-30T00:23:35.985Z,21.50
2019-04-30T00:24:35.478Z,21.30
2019-04-30T00:25:35.190Z,18.30
2019-04-30T00:26:35.437Z,20.60
2019-04-30T00:27:35.632Z,20.70
2019-04-30T00:28:35.367Z,21.80
2019-04-30T00:29:35.571Z,21.20
2019-04-30T00:30:35.074Z,20.80
2019-04-30T00:31:34.972Z,21.40
2019-04-30T00:32:39.336Z,20.20
2019-04-30T00:33:35.381Z,19.70
2019-04-30T00:34:36.035Z,20.10
2019-04-30T00:35:35.524Z,20.40
2019-04-30T00:36:37.320Z,19.80
2019-04-30T00:37:35.262Z,20.00
2019-04-30T00:38:37.814Z,19.60
2019-04-30T00:39:35.518Z,19.50
2019-04-30T00:40:35.191Z,19.80
2019-04-30T00:41:35.354Z,19.60
2019-04-30T00:42:35.776Z,19.60
2019-04-30T00:43:35.343Z,19.50
2019-04-30T00:44:35.635Z,17.80
2019-04-30T00:45:35.377Z,20.10
2019-04-30T00:46:36.403Z,19.20
2019-04-30T00:47:35.163Z,19.50
2019-04-30T00:48:35.668Z,19.90
2019-04-30T00:49:35.044Z,20.40
2019-04-30T00:50:37.240Z,18.50
2019-04-30T00:51:35.479Z,19.20
2019-04-30T00:52:37.243Z,19.10
2019-04-30T00:53:35.922Z,19.20
2019-04-30T00:54:35.179Z,19.60
2019-04-30T00:55:40.221Z,19.70
2019-04-30T00:56:35.521Z,20.10
2019-04-30T00:57:37.269Z,19.90
2019-04-30T00:58:35.659Z,19.80
2019-04-30T00:59:35.040Z,19.40
2019-04-30T01:00:35.221Z,18.70
2019-04-30T01:01:39.234Z,18.50
2019-04-30T01:02:35.776Z,18.50
2019-04-30T01:03:35.210Z,16.50
2019-04-30T01:04:34.948Z,18.00
2019-04-30T01:05:35.375Z,17.40
2019-04-30T01:06:34.985Z,18.20
2019-04-30T01:07:35.444Z,18.90
2019-04-30T01:08:35.836Z,19.00
2019-04-30T01:09:35.407Z,18.70
2019-04-30T01:10:34.805Z,18.90
2019-04-30T01:11:35.543Z,17.90
2019-04-30T01:12:39.102Z,19.40
2019-04-30T01:13:34.318Z,18.80
2019-04-30T01:14:34.320Z,18.30
2019-04-30T01:15:34.312Z,19.20
2019-04-30T01:16:34.358Z,19.10
2019-04-30T01:17:34.302Z,18.50
2019-04-30T01:18:34.305Z,18.50
2019-04-30T01:19:34.300Z,17.90
2019-04-30T01:20:34.293Z,18.20
2019-04-30T01:21:34.316Z,19.10
2019-04-30T01:22:34.285Z,19.20
2019-04-30T01:23:34.278Z,18.30
2019-04-30T01:24:34.281Z,19.10
2019-04-30T01:25:34.310Z,19.10
2019-04-30T01:26:34.275Z,19.70
2019-04-30T01:27:34.269Z,20.10
2019-04-30T01:28:34.285Z,20.60
2019-04-30T01:29:41.454Z,20.30
2019-04-30T01:30:34.285Z,21.30
2019-04-30T01:31:37.565Z,20.80
2019-04-30T01:32:34.246Z,20.90
2019-04-30T01:33:35.632Z,20.70
2019-04-30T01:34:34.243Z,21.30
2019-04-30T01:35:34.265Z,21.40
2019-04-30T01:36:34.231Z,21.60
2019-04-30T01:37:34.229Z,20.80
2019-04-30T01:38:34.226Z,20.60
2019-04-30T01:39:34.225Z,21.30
2019-04-30T01:40:34.245Z,20.60
2019-04-30T01:41:34.214Z,20.50
2019-04-30T01:42:34.212Z,20.60
2019-04-30T01:43:34.722Z,20.90
2019-04-30T01:44:34.204Z,21.80
2019-04-30T01:45:34.229Z,21.20
2019-04-30T01:46:34.194Z,20.80
2019-04-30T01:47:34.198Z,21.80
2019-04-30T01:48:34.187Z,22.10
2019-04-30T01:49:41.948Z,23.00
2019-04-30T01:50:38.734Z,23.70
2019-04-30T01:51:34.180Z,24.00
2019-04-30T01:52:35.211Z,22.20
2019-04-30T01:53:34.167Z,23.70
2019-04-30T01:54:34.168Z,21.60
2019-04-30T01:55:34.188Z,21.30
2019-04-30T01:56:34.183Z,20.70
2019-04-30T01:57:34.154Z,20.80
2019-04-30T01:58:34.147Z,21.20
2019-04-30T01:59:34.157Z,20.90
2019-04-30T02:00:34.148Z,20.70
2019-04-30T02:01:34.163Z,19.70
2019-04-30T02:02:34.132Z,19.20
2019-04-30T02:03:34.135Z,20.60
2019-04-30T02:04:34.129Z,20.30
2019-04-30T02:05:34.123Z,19.20
2019-04-30T02:06:34.162Z,20.00
2019-04-30T02:07:34.123Z,20.10
2019-04-30T02:08:34.118Z,19.60
2019-04-30T02:09:34.115Z,18.80
2019-04-30T02:10:34.111Z,19.60
2019-04-30T02:11:34.127Z,19.90
2019-04-30T02:12:34.099Z,20.30
2019-04-30T02:13:34.502Z,19.70
2019-04-30T02:14:34.091Z,19.70
2019-04-30T02:15:34.088Z,19.40
2019-04-30T02:16:34.109Z,19.60
2019-04-30T02:17:34.075Z,19.30
2019-04-30T02:18:34.077Z,17.90
2019-04-30T02:19:34.065Z,18.70
2019-04-30T02:20:34.091Z,19.50
2019-04-30T02:21:34.059Z,17.40
2019-04-30T02:22:34.057Z,18.20
2019-04-30T02:23:34.059Z,19.00
2019-04-30T02:24:34.047Z,18.70
2019-04-30T02:25:34.072Z,19.60
2019-04-30T02:26:34.039Z,19.00
2019-04-30T02:27:34.036Z,18.80
2019-04-30T02:28:34.032Z,18.00
2019-04-30T02:29:34.027Z,18.20
2019-04-30T02:30:34.054Z,18.10
2019-04-30T02:31:34.022Z,17.80
2019-04-30T02:32:34.017Z,17.80
2019-04-30T02:33:34.010Z,18.00
2019-04-30T02:34:34.008Z,19.10
2019-04-30T02:35:34.026Z,19.50
2019-04-30T02:36:34.004Z,18.40
2019-04-30T02:37:33.993Z,17.90
2019-04-30T02:38:33.990Z,17.60
2019-04-30T02:39:33.989Z,17.20
2019-04-30T02:40:34.019Z,17.60
2019-04-30T02:41:34.004Z,17.40
2019-04-30T02:42:33.974Z,17.90
2019-04-30T02:43:33.965Z,18.20
2019-04-30T02:44:33.959Z,18.70
2019-04-30T02:45:33.959Z,18.10
2019-04-30T02:46:33.978Z,17.80
2019-04-30T02:47:33.946Z,18.10
2019-04-30T02:48:33.941Z,18.90
2019-04-30T02:49:33.941Z,17.40
2019-04-30T02:50:33.934Z,17.10
2019-04-30T02:51:33.975Z,17.40
2019-04-30T02:52:33.928Z,17.50
2019-04-30T02:53:33.922Z,17.70
2019-04-30T02:54:33.914Z,16.70
2019-04-30T02:55:33.907Z,16.80
2019-04-30T02:56:33.933Z,17.00
2019-04-30T02:57:33.902Z,16.60
2019-04-30T02:58:33.895Z,16.00
2019-04-30T02:59:33.895Z,17.00
2019-04-30T03:00:33.885Z,16.50
2019-04-30T03:01:33.908Z,15.60
2019-04-30T03:02:33.882Z,15.60
2019-04-30T03:03:33.872Z,16.40
2019-04-30T03:04:33.881Z,15.90
2019-04-30T03:05:33.867Z,15.00
2019-04-30T03:06:33.886Z,16.20
2019-04-30T03:07:33.847Z,15.70
2019-04-30T03:08:33.850Z,15.80
2019-04-30T03:09:33.843Z,15.40
2019-04-30T03:10:33.839Z,15.40
2019-04-30T03:11:33.880Z,13.90
2019-04-30T03:12:34.110Z,15.40
2019-04-30T03:13:34.193Z,14.00
2019-04-30T03:14:33.824Z,15.30
2019-04-30T03:15:33.807Z,15.50
2019-04-30T03:16:33.804Z,15.70
2019-04-30T03:17:33.829Z,14.30
2019-04-30T03:18:33.799Z,15.10
2019-04-30T03:19:33.794Z,14.30
2019-04-30T03:20:36.338Z,14.50
2019-04-30T03:21:33.819Z,14.80
2019-04-30T03:22:33.778Z,14.00
2019-04-30T03:23:33.770Z,13.60
2019-04-30T03:24:33.781Z,13.40
2019-04-30T03:25:33.762Z,12.30
2019-04-30T03:26:33.790Z,13.10
2019-04-30T03:27:33.753Z,13.00
2019-04-30T03:28:33.750Z,13.30
2019-04-30T03:29:33.775Z,13.60
2019-04-30T03:30:33.752Z,13.30
2019-04-30T03:31:33.744Z,13.60
2019-04-30T03:32:36.788Z,13.40
2019-04-30T03:33:33.734Z,14.10
2019-04-30T03:34:33.721Z,13.70
2019-04-30T03:35:33.712Z,13.10
2019-04-30T03:36:33.767Z,12.60
2019-04-30T03:37:33.698Z,12.30
2019-04-30T03:38:33.696Z,11.90
2019-04-30T03:39:34.298Z,13.40
2019-04-30T03:40:33.695Z,12.90
2019-04-30T03:41:33.680Z,13.40
2019-04-30T03:42:33.704Z,12.00
2019-04-30T03:43:33.685Z,12.30
2019-04-30T03:44:33.670Z,13.00
2019-04-30T03:45:33.660Z,12.30
2019-04-30T03:46:33.656Z,11.70
2019-04-30T03:47:33.684Z,12.10
2019-04-30T03:48:33.650Z,11.80
2019-04-30T03:49:33.639Z,11.70
2019-04-30T03:50:49.210Z,12.30
2019-04-30T03:51:33.629Z,12.00
2019-04-30T03:52:33.656Z,11.90
2019-04-30T03:53:33.617Z,11.80
2019-04-30T03:54:33.611Z,11.20
2019-04-30T03:55:33.608Z,11.60
2019-04-30T03:56:33.603Z,11.60
2019-04-30T03:57:33.632Z,12.40
2019-04-30T03:58:33.599Z,12.50
2019-04-30T03:59:33.593Z,11.60
2019-04-30T04:00:33.598Z,11.70
2019-04-30T04:01:33.577Z,11.90
2019-04-30T04:02:33.597Z,11.90
2019-04-30T04:03:33.566Z,11.20
2019-04-30T04:04:33.561Z,10.60
2019-04-30T04:05:33.565Z,11.10
2019-04-30T04:06:33.578Z,11.10
2019-04-30T04:07:33.541Z,11.20
2019-04-30T04:08:33.540Z,10.30
2019-04-30T04:09:33.533Z,10.90
2019-04-30T04:10:33.527Z,11.10
2019-04-30T04:11:33.569Z,10.40
2019-04-30T04:12:33.520Z,10.10
2019-04-30T04:13:33.518Z,10.50
2019-04-30T04:14:33.509Z,10.80
2019-04-30T04:15:33.532Z,10.00
2019-04-30T04:16:33.506Z,10.30
2019-04-30T04:17:33.522Z,10.20
2019-04-30T04:18:33.488Z,10.00
2019-04-30T04:19:33.485Z,10.20
2019-04-30T04:20:33.473Z,10.50
2019-04-30T04:21:33.468Z,11.20
2019-04-30T04:22:33.489Z,10.70
2019-04-30T04:23:33.471Z,10.70
2019-04-30T04:24:33.458Z,12.50
2019-04-30T04:25:33.451Z,13.90
2019-04-30T04:26:33.442Z,12.60
2019-04-30T04:27:33.478Z,11.50
2019-04-30T04:28:33.435Z,23.50
2019-04-30T04:29:33.431Z,42.80
2019-04-30T04:30:33.451Z,39.30
2019-04-30T04:31:33.419Z,51.20
2019-04-30T04:32:33.414Z,51.90
2019-04-30T04:33:33.432Z,50.70
2019-04-30T04:34:33.402Z,106.80
2019-04-30T04:35:33.398Z,70.80
2019-04-30T04:36:33.389Z,22.70
2019-04-30T04:37:33.426Z,14.40
2019-04-30T04:38:33.384Z,13.10
2019-04-30T04:39:33.415Z,15.60
2019-04-30T04:40:33.371Z,22.60
2019-04-30T04:41:33.368Z,30.90
2019-04-30T04:42:33.365Z,27.20
2019-04-30T04:43:33.387Z,21.00
2019-04-30T04:44:33.355Z,17.30
2019-04-30T04:45:33.354Z,21.30
2019-04-30T04:46:33.343Z,15.60
2019-04-30T04:47:33.355Z,19.50
2019-04-30T04:48:33.336Z,42.60
2019-04-30T04:49:33.326Z,30.40
2019-04-30T04:50:33.324Z,22.70
2019-04-30T04:51:38.441Z,17.50
2019-04-30T04:52:33.355Z,18.20
2019-04-30T04:53:33.312Z,18.70
2019-04-30T04:54:33.328Z,17.60
2019-04-30T04:55:33.299Z,23.20
2019-04-30T04:56:33.309Z,18.00
2019-04-30T04:57:33.293Z,19.00
2019-04-30T04:58:33.324Z,22.80
2019-04-30T04:59:33.287Z,22.50
2019-04-30T05:00:33.300Z,33.20
2019-04-30T05:01:33.276Z,22.50
2019-04-30T05:02:33.271Z,24.70
2019-04-30T05:03:33.264Z,89.50
2019-04-30T05:04:33.311Z,48.80
2019-04-30T05:05:33.252Z,22.70
2019-04-30T05:06:33.255Z,26.40
2019-04-30T05:07:33.247Z,17.50
2019-04-30T05:08:33.243Z,15.70
2019-04-30T05:09:33.263Z,14.30
2019-04-30T05:10:33.233Z,15.30
2019-04-30T05:11:33.227Z,14.30
2019-04-30T05:12:33.224Z,11.90
2019-04-30T05:13:34.694Z,11.70
2019-04-30T05:14:33.251Z,11.10
2019-04-30T05:15:33.212Z,9.50
2019-04-30T05:16:33.220Z,9.00
2019-04-30T05:17:33.200Z,9.50
2019-04-30T05:18:33.204Z,9.10
2019-04-30T05:19:33.222Z,8.90
2019-04-30T05:20:33.195Z,8.10
2019-04-30T05:21:42.025Z,7.80
2019-04-30T05:22:33.185Z,7.70
2019-04-30T05:23:33.182Z,7.60
2019-04-30T05:24:33.217Z,7.90
2019-04-30T05:25:33.177Z,7.40
2019-04-30T05:26:33.178Z,7.10
2019-04-30T05:27:33.174Z,7.40
2019-04-30T05:28:33.168Z,6.80
2019-04-30T05:29:33.192Z,7.00
2019-04-30T05:30:33.164Z,6.90
2019-04-30T05:31:33.160Z,7.20
2019-04-30T05:32:33.160Z,6.60
2019-04-30T05:33:33.167Z,6.60
2019-04-30T05:34:33.188Z,6.30
2019-04-30T05:35:33.148Z,6.30
2019-04-30T05:36:33.153Z,6.50
2019-04-30T05:37:33.146Z,6.40
2019-04-30T05:38:33.141Z,6.00
2019-04-30T05:39:33.168Z,6.10
2019-04-30T05:40:33.165Z,6.60
2019-04-30T05:41:33.138Z,5.50
2019-04-30T05:42:33.134Z,4.50
2019-04-30T05:43:33.134Z,5.00
2019-04-30T05:44:33.125Z,5.50
2019-04-30T05:45:33.778Z,4.80
2019-04-30T05:46:33.127Z,4.60
2019-04-30T05:47:33.125Z,4.80
2019-04-30T05:48:33.121Z,4.80
2019-04-30T05:49:33.117Z,4.80
2019-04-30T05:50:33.151Z,4.70
2019-04-30T05:51:33.118Z,5.10
2019-04-30T05:52:33.115Z,4.60
2019-04-30T05:53:33.109Z,4.40
2019-04-30T05:54:33.115Z,5.00
2019-04-30T05:55:33.134Z,4.50
2019-04-30T05:56:33.106Z,4.10
2019-04-30T05:57:33.101Z,3.90
2019-04-30T05:58:33.102Z,4.50
2019-04-30T05:59:33.102Z,4.10
2019-04-30T06:00:33.125Z,4.50
2019-04-30T06:01:33.093Z,4.10
2019-04-30T06:02:34.094Z,4.30
2019-04-30T06:03:33.435Z,4.40
2019-04-30T06:04:33.093Z,4.00
2019-04-30T06:05:33.117Z,4.60
2019-04-30T06:06:33.700Z,4.50
2019-04-30T06:07:33.085Z,4.30
2019-04-30T06:08:33.086Z,3.90
2019-04-30T06:09:34.076Z,4.00
2019-04-30T06:10:33.112Z,4.00
2019-04-30T06:11:33.086Z,4.00
2019-04-30T06:12:33.085Z,4.10
2019-04-30T06:13:33.076Z,3.80
2019-04-30T06:14:33.079Z,3.80
2019-04-30T06:15:33.121Z,4.00
2019-04-30T06:16:33.074Z,4.20
2019-04-30T06:17:33.098Z,3.60
2019-04-30T06:18:33.070Z,3.70
2019-04-30T06:19:33.070Z,4.30
2019-04-30T06:20:33.076Z,4.00
2019-04-30T06:21:33.099Z,4.30
2019-04-30T06:22:33.069Z,3.70
2019-04-30T06:23:33.062Z,3.80
2019-04-30T06:24:33.065Z,4.00
2019-04-30T06:25:45.858Z,3.60
2019-04-30T06:26:33.090Z,4.00
2019-04-30T06:27:33.085Z,4.10
2019-04-30T06:28:33.065Z,4.00
2019-04-30T06:29:33.058Z,3.80
2019-04-30T06:30:33.065Z,4.30
2019-04-30T06:31:37.366Z,4.00
2019-04-30T06:32:33.084Z,4.00
2019-04-30T06:33:33.058Z,3.60
2019-04-30T06:34:33.055Z,3.70
2019-04-30T06:35:33.058Z,3.80
2019-04-30T06:36:33.058Z,3.70
2019-04-30T06:37:33.083Z,4.00
2019-04-30T06:38:33.054Z,4.20
2019-04-30T06:39:33.055Z,4.30
2019-04-30T06:40:33.054Z,3.90
2019-04-30T06:41:33.055Z,3.80
2019-04-30T06:42:33.083Z,3.80
2019-04-30T06:43:33.054Z,3.80
2019-04-30T06:44:37.321Z,3.90
2019-04-30T06:45:33.052Z,4.20
2019-04-30T06:46:33.053Z,4.00
2019-04-30T06:47:33.536Z,4.10
2019-04-30T06:48:33.058Z,3.90
2019-04-30T06:49:33.059Z,3.90
2019-04-30T06:50:33.063Z,4.10
2019-04-30T06:51:33.059Z,4.00
2019-04-30T06:52:33.091Z,4.10
2019-04-30T06:53:33.058Z,4.10
2019-04-30T06:54:33.063Z,4.00
2019-04-30T06:55:33.064Z,3.80
2019-04-30T06:56:33.065Z,3.70
2019-04-30T06:57:33.091Z,4.30
2019-04-30T06:58:33.069Z,3.90
2019-04-30T06:59:33.063Z,4.00
2019-04-30T07:00:35.520Z,3.90
2019-04-30T07:01:33.071Z,4.10
2019-04-30T07:02:33.100Z,4.00
2019-04-30T07:03:33.109Z,3.80
2019-04-30T07:04:33.083Z,3.80
2019-04-30T07:05:33.077Z,3.60
2019-04-30T07:06:37.034Z,3.90
2019-04-30T07:07:39.021Z,4.30
2019-04-30T07:08:39.614Z,4.30
2019-04-30T07:09:39.827Z,4.20
2019-04-30T07:10:33.084Z,3.50
2019-04-30T07:11:33.095Z,3.50
2019-04-30T07:12:34.174Z,3.60
2019-04-30T07:13:33.129Z,4.10
2019-04-30T07:14:33.097Z,3.90
2019-04-30T07:15:33.097Z,3.70
2019-04-30T07:16:33.099Z,3.50
2019-04-30T07:17:33.099Z,3.70
2019-04-30T07:18:33.131Z,4.30
2019-04-30T07:19:50.089Z,4.00
2019-04-30T07:20:34.116Z,3.30
2019-04-30T07:21:36.474Z,4.00
2019-04-30T07:22:39.981Z,4.30
2019-04-30T07:23:33.136Z,3.90
2019-04-30T07:24:33.147Z,4.10
2019-04-30T07:25:33.113Z,3.70
2019-04-30T07:26:33.116Z,3.30
2019-04-30T07:27:33.119Z,3.70
2019-04-30T07:28:46.569Z,3.80
2019-04-30T07:29:33.120Z,3.60
2019-04-30T07:30:33.121Z,3.70
2019-04-30T07:31:33.124Z,4.10
2019-04-30T07:32:33.128Z,3.40
2019-04-30T07:33:33.128Z,4.00
2019-04-30T07:34:37.020Z,3.80
2019-04-30T07:35:33.132Z,3.90
2019-04-30T07:36:45.291Z,3.60
2019-04-30T07:37:33.164Z,3.90
2019-04-30T07:38:35.845Z,4.00
2019-04-30T07:39:33.505Z,3.60
2019-04-30T07:40:33.143Z,3.50
2019-04-30T07:41:33.145Z,3.70
2019-04-30T07:42:38.041Z,4.00
2019-04-30T07:43:33.149Z,3.70
2019-04-30T07:44:36.376Z,3.80
2019-04-30T07:45:33.153Z,4.10
2019-04-30T07:46:35.267Z,4.50
2019-04-30T07:47:33.163Z,4.30
2019-04-30T07:48:33.160Z,3.70
2019-04-30T07:49:46.882Z,3.90
2019-04-30T07:50:33.664Z,3.60
2019-04-30T07:51:37.736Z,3.70
2019-04-30T07:52:34.393Z,3.80
2019-04-30T07:53:33.178Z,3.60
2019-04-30T07:54:33.209Z,4.00
2019-04-30T07:55:33.181Z,4.40
2019-04-30T07:56:37.675Z,4.00
2019-04-30T07:57:33.232Z,3.90
2019-04-30T07:58:33.187Z,3.90
2019-04-30T07:59:33.219Z,3.90
2019-04-30T08:00:33.198Z,3.50
2019-04-30T08:01:33.206Z,3.90
2019-04-30T08:02:37.964Z,3.90
2019-04-30T08:03:33.368Z,4.00
2019-04-30T08:04:33.242Z,4.20
2019-04-30T08:05:33.223Z,3.50
2019-04-30T08:06:33.291Z,3.80
2019-04-30T08:07:33.271Z,3.60
2019-04-30T08:08:33.274Z,4.10
2019-04-30T08:09:39.697Z,3.60
2019-04-30T08:10:33.891Z,4.00
2019-04-30T08:11:34.521Z,4.20
2019-04-30T08:12:36.756Z,3.80
2019-04-30T08:13:33.835Z,3.80
2019-04-30T08:14:33.290Z,4.10
2019-04-30T08:15:33.286Z,3.80
2019-04-30T08:16:33.268Z,3.80
2019-04-30T08:17:33.270Z,3.70
2019-04-30T08:18:33.276Z,3.90
2019-04-30T08:19:33.273Z,4.00
2019-04-30T08:20:33.306Z,3.70
2019-04-30T08:21:33.305Z,3.80
2019-04-30T08:22:33.290Z,4.60
2019-04-30T08:23:37.001Z,3.70
2019-04-30T08:24:33.310Z,3.70
2019-04-30T08:25:33.358Z,3.60
2019-04-30T08:26:33.317Z,3.60
2019-04-30T08:27:33.324Z,3.40
2019-04-30T08:28:33.327Z,4.20
2019-04-30T08:29:33.359Z,3.90
2019-04-30T08:30:33.423Z,3.50
2019-04-30T08:31:33.349Z,3.50
2019-04-30T08:32:33.352Z,3.50
2019-04-30T08:33:33.359Z,3.50
2019-04-30T08:34:33.395Z,3.90
2019-04-30T08:35:33.396Z,4.10
2019-04-30T08:36:33.379Z,3.80
2019-04-30T08:37:33.383Z,3.50
2019-04-30T08:38:33.394Z,4.00
2019-04-30T08:39:33.396Z,3.80
2019-04-30T08:40:33.431Z,3.90
2019-04-30T08:41:33.413Z,4.30
2019-04-30T08:42:34.604Z,3.90
2019-04-30T08:43:33.423Z,3.80
2019-04-30T08:44:33.431Z,3.70
2019-04-30T08:45:34.876Z,3.70
2019-04-30T08:46:33.447Z,3.70
2019-04-30T08:47:33.451Z,3.90
2019-04-30T08:48:49.913Z,3.70
2019-04-30T08:49:33.735Z,3.70
2019-04-30T08:50:33.534Z,3.60
2019-04-30T08:51:33.683Z,3.60
2019-04-30T08:52:33.509Z,3.30
2019-04-30T08:53:34.050Z,4.00
2019-04-30T08:54:34.704Z,4.00
2019-04-30T08:55:33.561Z,3.90
2019-04-30T08:56:33.524Z,3.80
2019-04-30T08:57:33.531Z,3.60
2019-04-30T08:58:33.540Z,3.70
2019-04-30T08:59:33.553Z,3.90
2019-04-30T09:00:33.584Z,3.80
2019-04-30T09:01:33.566Z,3.70
2019-04-30T09:02:33.580Z,3.40
2019-04-30T09:03:33.585Z,3.70
2019-04-30T09:04:33.592Z,3.80
2019-04-30T09:05:33.628Z,3.90
2019-04-30T09:06:33.652Z,3.80
2019-04-30T09:07:33.620Z,3.70
2019-04-30T09:08:33.629Z,3.70
2019-04-30T09:09:33.636Z,3.40
2019-04-30T09:10:33.678Z,3.60
2019-04-30T09:11:43.002Z,3.30
2019-04-30T09:12:33.669Z,3.40
2019-04-30T09:13:33.676Z,3.30
2019-04-30T09:14:33.685Z,3.70
2019-04-30T09:15:33.725Z,3.40
2019-04-30T09:16:33.768Z,3.40
2019-04-30T09:17:33.719Z,3.40
2019-04-30T09:18:33.725Z,3.60
2019-04-30T09:19:33.743Z,3.50
2019-04-30T09:20:33.772Z,3.50
2019-04-30T09:21:33.782Z,3.40
2019-04-30T09:22:33.768Z,3.40
2019-04-30T09:23:43.961Z,3.40
2019-04-30T09:24:33.789Z,3.40
2019-04-30T09:25:33.825Z,3.70
2019-04-30T09:26:33.833Z,3.40
2019-04-30T09:27:33.832Z,3.70
2019-04-30T09:28:33.829Z,3.80
2019-04-30T09:29:33.838Z,3.80
2019-04-30T09:30:33.882Z,3.30
2019-04-30T09:31:33.906Z,3.60
2019-04-30T09:32:33.869Z,3.50
2019-04-30T09:33:33.879Z,4.50
2019-04-30T09:34:33.892Z,3.60
2019-04-30T09:35:33.936Z,3.40
2019-04-30T09:36:33.919Z,3.40
2019-04-30T09:37:33.923Z,3.60
2019-04-30T09:38:33.936Z,3.60
2019-04-30T09:39:33.949Z,3.10
2019-04-30T09:40:33.986Z,3.40
2019-04-30T09:41:33.969Z,3.30
2019-04-30T09:42:33.984Z,3.60
2019-04-30T09:43:33.990Z,3.20
2019-04-30T09:44:34.001Z,3.30
2019-04-30T09:45:34.042Z,3.30
2019-04-30T09:46:34.026Z,3.30
2019-04-30T09:47:34.066Z,3.30
2019-04-30T09:48:34.054Z,3.50
2019-04-30T09:49:34.065Z,3.60
2019-04-30T09:50:34.732Z,3.50
2019-04-30T09:51:34.269Z,3.30
2019-04-30T09:52:36.124Z,3.50
2019-04-30T09:53:34.142Z,3.50
2019-04-30T09:54:34.114Z,3.40
2019-04-30T09:55:34.166Z,3.40
2019-04-30T09:56:34.151Z,3.80
2019-04-30T09:57:34.159Z,3.30
2019-04-30T09:58:34.168Z,3.90
2019-04-30T09:59:34.182Z,3.70
2019-04-30T10:00:34.225Z,3.70
2019-04-30T10:01:34.211Z,3.40
2019-04-30T10:02:34.215Z,3.80
2019-04-30T10:03:34.968Z,3.80
2019-04-30T10:04:34.377Z,3.30
2019-04-30T10:05:34.284Z,3.70
2019-04-30T10:06:39.502Z,3.40
2019-04-30T10:07:34.275Z,3.70
2019-04-30T10:08:46.102Z,3.50
2019-04-30T10:09:34.309Z,3.70
2019-04-30T10:10:34.424Z,3.40
2019-04-30T10:11:34.331Z,3.50
2019-04-30T10:12:34.344Z,3.50
2019-04-30T10:13:34.350Z,3.60
2019-04-30T10:14:34.370Z,3.50
2019-04-30T10:15:34.410Z,3.60
2019-04-30T10:16:34.391Z,3.60
2019-04-30T10:17:34.402Z,3.70
2019-04-30T10:18:34.421Z,3.50
2019-04-30T10:19:34.429Z,3.70
2019-04-30T10:20:34.470Z,3.80
2019-04-30T10:21:34.452Z,3.70
2019-04-30T10:22:34.464Z,3.50
2019-04-30T10:23:34.479Z,3.20
2019-04-30T10:24:34.492Z,3.70
2019-04-30T10:25:34.533Z,3.60
2019-04-30T10:26:34.516Z,3.00
2019-04-30T10:27:34.528Z,3.50
2019-04-30T10:28:34.574Z,3.50
2019-04-30T10:29:34.556Z,3.50
2019-04-30T10:30:34.657Z,3.50
2019-04-30T10:31:34.609Z,3.30
2019-04-30T10:32:34.597Z,3.40
2019-04-30T10:33:34.609Z,3.30
2019-04-30T10:34:34.626Z,3.60
2019-04-30T10:35:34.661Z,3.20
2019-04-30T10:36:34.675Z,3.30
2019-04-30T10:37:34.662Z,3.00
2019-04-30T10:38:34.678Z,3.20
2019-04-30T10:39:34.693Z,3.10
2019-04-30T10:40:34.729Z,2.90
2019-04-30T10:41:34.742Z,2.80
2019-04-30T10:42:34.956Z,2.70
2019-04-30T10:43:34.742Z,2.80
2019-04-30T10:44:34.754Z,2.60
2019-04-30T10:45:34.793Z,2.90
2019-04-30T10:46:34.805Z,3.20
2019-04-30T10:47:34.797Z,2.80
2019-04-30T10:48:34.807Z,2.80
2019-04-30T10:49:34.831Z,2.70
2019-04-30T10:50:34.886Z,2.70
2019-04-30T10:51:34.874Z,3.00
2019-04-30T10:52:34.866Z,2.80
2019-04-30T10:53:34.875Z,2.60
2019-04-30T10:54:34.887Z,2.70
2019-04-30T10:55:34.932Z,2.60
2019-04-30T10:56:34.942Z,2.30
2019-04-30T10:57:34.931Z,2.60
2019-04-30T10:58:34.938Z,2.50
2019-04-30T10:59:34.955Z,2.60
2019-04-30T11:00:34.997Z,2.50
2019-04-30T11:01:35.008Z,2.40
2019-04-30T11:02:35.000Z,2.60
2019-04-30T11:03:35.017Z,2.30
2019-04-30T11:04:35.029Z,2.50
2019-04-30T11:05:35.082Z,2.30
2019-04-30T11:06:35.083Z,2.50
2019-04-30T11:07:35.072Z,2.20
2019-04-30T11:08:35.081Z,2.40
2019-04-30T11:09:35.095Z,2.40
2019-04-30T11:10:35.220Z,2.10
2019-04-30T11:11:35.147Z,2.50
2019-04-30T11:12:35.136Z,2.40
2019-04-30T11:13:35.152Z,2.40
2019-04-30T11:14:35.165Z,2.30
2019-04-30T11:15:35.179Z,2.30
2019-04-30T11:16:35.220Z,2.00
2019-04-30T11:17:35.343Z,2.30
2019-04-30T11:18:35.374Z,2.20
2019-04-30T11:19:35.366Z,2.30
2019-04-30T11:20:35.312Z,2.30
2019-04-30T11:21:35.483Z,2.30
2019-04-30T11:22:35.443Z,2.20
2019-04-30T11:23:35.391Z,2.20
2019-04-30T11:24:37.997Z,2.00
2019-04-30T11:25:35.708Z,2.10
2019-04-30T11:26:35.735Z,2.10
2019-04-30T11:27:35.924Z,2.50
2019-04-30T11:28:35.517Z,2.20
2019-04-30T11:29:35.467Z,2.20
2019-04-30T11:30:35.682Z,2.20
2019-04-30T11:31:35.656Z,2.00
2019-04-30T11:32:35.640Z,2.20
2019-04-30T11:33:35.556Z,2.00
2019-04-30T11:34:35.449Z,2.10
2019-04-30T11:35:35.465Z,2.10
2019-04-30T11:36:35.506Z,2.10
2019-04-30T11:37:35.521Z,1.70
2019-04-30T11:38:35.509Z,1.90
2019-04-30T11:39:36.474Z,1.80
2019-04-30T11:40:37.959Z,1.80
2019-04-30T11:41:35.574Z,1.70
2019-04-30T11:42:35.602Z,2.00
2019-04-30T11:43:35.583Z,1.70
2019-04-30T11:44:35.604Z,1.90
2019-04-30T11:45:35.610Z,2.10
2019-04-30T11:46:35.654Z,1.80
2019-04-30T11:47:35.671Z,2.00
2019-04-30T11:48:35.655Z,2.00
2019-04-30T11:49:35.665Z,2.00
2019-04-30T11:50:36.474Z,2.00
2019-04-30T11:51:35.723Z,1.90
2019-04-30T11:52:35.740Z,1.80
2019-04-30T11:53:35.737Z,2.20
2019-04-30T11:54:35.736Z,2.30
2019-04-30T11:55:35.757Z,2.20
2019-04-30T11:56:38.297Z,2.10
2019-04-30T11:57:35.811Z,2.10
2019-04-30T11:58:35.803Z,2.20
2019-04-30T11:59:35.816Z,2.10
2019-04-30T12:00:35.826Z,2.20
2019-04-30T12:01:35.864Z,2.20
2019-04-30T12:02:35.879Z,2.20
2019-04-30T12:03:35.939Z,2.50
2019-04-30T12:04:35.876Z,2.40
2019-04-30T12:05:35.892Z,2.40
2019-04-30T12:06:35.937Z,2.50
2019-04-30T12:07:35.929Z,2.20
2019-04-30T12:08:35.936Z,2.30
2019-04-30T12:09:35.959Z,2.40
2019-04-30T12:10:36.494Z,2.30
2019-04-30T12:11:36.004Z,2.20
2019-04-30T12:12:35.996Z,2.40
2019-04-30T12:13:36.004Z,2.50
2019-04-30T12:14:36.023Z,2.30
2019-04-30T12:15:36.033Z,2.50
2019-04-30T12:16:36.074Z,2.20
2019-04-30T12:17:36.057Z,2.40
2019-04-30T12:18:36.073Z,2.50
2019-04-30T12:19:36.091Z,2.40
2019-04-30T12:20:36.103Z,2.50
2019-04-30T12:21:36.141Z,2.50
2019-04-30T12:22:36.160Z,2.30
2019-04-30T12:23:36.145Z,2.20
2019-04-30T12:24:36.151Z,2.30
2019-04-30T12:25:36.165Z,2.60
2019-04-30T12:26:36.234Z,2.60
2019-04-30T12:27:38.671Z,2.90
2019-04-30T12:28:36.244Z,2.90
2019-04-30T12:29:36.220Z,2.70
2019-04-30T12:30:39.048Z,2.90
2019-04-30T12:31:36.274Z,2.80
2019-04-30T12:32:36.282Z,2.80
2019-04-30T12:33:36.270Z,3.20
2019-04-30T12:34:36.283Z,3.10
2019-04-30T12:35:36.298Z,3.30
2019-04-30T12:36:36.335Z,2.50
2019-04-30T12:37:39.099Z,2.70
2019-04-30T12:38:36.338Z,2.80
2019-04-30T12:39:36.350Z,2.60
2019-04-30T12:40:36.358Z,2.90
2019-04-30T12:41:36.402Z,3.20
2019-04-30T12:42:36.419Z,2.90
2019-04-30T12:43:36.402Z,2.80
2019-04-30T12:44:39.902Z,2.60
2019-04-30T12:45:36.431Z,3.40
2019-04-30T12:46:38.628Z,2.90
2019-04-30T12:47:36.485Z,3.00
2019-04-30T12:48:36.471Z,3.10
2019-04-30T12:49:37.007Z,3.20
2019-04-30T12:50:36.497Z,3.50
2019-04-30T12:51:45.673Z,3.60
2019-04-30T12:52:36.547Z,3.30
2019-04-30T12:53:37.627Z,3.70
2019-04-30T12:54:36.544Z,3.30
2019-04-30T12:55:36.560Z,3.20
2019-04-30T12:56:36.595Z,3.60
2019-04-30T12:57:36.579Z,3.60
2019-04-30T12:58:36.603Z,3.70
2019-04-30T12:59:36.607Z,3.30
2019-04-30T13:00:36.624Z,5.70
2019-04-30T13:01:36.664Z,6.30
2019-04-30T13:02:36.651Z,5.00
2019-04-30T13:03:36.664Z,5.20
2019-04-30T13:04:36.669Z,3.80
2019-04-30T13:05:36.684Z,3.70
2019-04-30T13:06:37.168Z,3.90
2019-04-30T13:07:39.016Z,3.70